createdAt,value
2018-03-28T00:00:35.277Z,4.10
2018-03-28T00:03:01.544Z,4.10
2018-03-28T00:05:27.754Z,4.10
2018-03-28T00:07:53.975Z,4.00
2018-03-28T00:10:20.177Z,4.00
2018-03-28T00:12:47.188Z,4.00
2018-03-28T00:15:13.416Z,4.00
2018-03-28T00:17:39.611Z,4.00
2018-03-28T00:20:05.839Z,4.00
2018-03-28T00:22:32.043Z,3.90
2018-03-28T00:24:59.010Z,3.90
2018-03-28T00:27:25.213Z,3.80
2018-03-28T00:29:52.231Z,3.80
2018-03-28T00:32:18.401Z,3.80
2018-03-28T00:34:45.359Z,3.80
2018-03-28T00:37:11.584Z,3.80
2018-03-28T00:39:37.788Z,3.80
2018-03-28T00:42:04.044Z,3.80
2018-03-28T00:44:30.248Z,3.80
2018-03-28T00:46:57.380Z,3.80
2018-03-28T00:49:23.578Z,3.80
2018-03-28T00:51:49.801Z,3.70
2018-03-28T00:54:16.048Z,3.70
2018-03-28T00:56:42.276Z,3.70
2018-03-28T00:59:08.491Z,3.70
2018-03-28T01:01:34.685Z,3.70
2018-03-28T01:04:01.624Z,3.70
2018-03-28T01:06:28.605Z,3.70
2018-03-28T01:08:54.807Z,3.60
2018-03-28T01:11:21.776Z,3.70
2018-03-28T01:13:47.981Z,3.60
2018-03-28T01:16:14.203Z,3.60
2018-03-28T01:18:40.404Z,3.60
2018-03-28T01:21:06.649Z,3.60
2018-03-28T01:23:32.873Z,3.60
2018-03-28T01:25:59.069Z,3.50
2018-03-28T01:28:25.308Z,3.50
2018-03-28T01:30:51.513Z,3.50
2018-03-28T01:33:17.734Z,3.50
2018-03-28T01:35:44.705Z,3.50
2018-03-28T01:38:10.931Z,3.40
2018-03-28T01:40:37.134Z,3.50
2018-03-28T01:43:04.111Z,3.50
2018-03-28T01:45:30.334Z,3.50
2018-03-28T01:47:56.537Z,3.60
2018-03-28T01:50:23.504Z,3.60
2018-03-28T01:52:49.728Z,3.50
2018-03-28T01:55:16.694Z,3.60
2018-03-28T01:57:42.916Z,3.60
2018-03-28T02:00:09.140Z,3.60
2018-03-28T02:02:35.340Z,3.60
2018-03-28T02:05:01.573Z,3.60
2018-03-28T02:07:27.777Z,3.60
2018-03-28T02:09:53.998Z,3.60
2018-03-28T02:12:20.224Z,3.70
2018-03-28T02:14:46.430Z,3.60
2018-03-28T02:17:12.660Z,3.60
2018-03-28T02:19:38.855Z,3.60
2018-03-28T02:22:05.824Z,3.70
2018-03-28T02:24:32.027Z,3.60
2018-03-28T02:26:58.271Z,3.60
2018-03-28T02:29:32.122Z,3.60
2018-03-28T02:31:58.347Z,3.60
2018-03-28T02:34:24.592Z,3.60
2018-03-28T02:36:50.823Z,3.60
2018-03-28T02:39:17.063Z,3.60
2018-03-28T02:41:43.274Z,3.50
2018-03-28T02:44:09.521Z,3.50
2018-03-28T02:46:35.730Z,3.50
2018-03-28T02:49:02.012Z,3.60
2018-03-28T02:51:28.972Z,3.60
2018-03-28T02:54:32.694Z,3.60
2018-03-28T02:56:59.107Z,3.60
2018-03-28T02:59:26.267Z,3.60
2018-03-28T03:01:53.943Z,3.60
2018-03-28T03:04:20.416Z,3.60
2018-03-28T03:06:46.886Z,3.60
2018-03-28T03:09:14.038Z,3.70
2018-03-28T03:11:41.241Z,3.70
2018-03-28T03:14:07.671Z,3.70
2018-03-28T03:16:34.195Z,3.70
2018-03-28T03:19:00.581Z,3.70
2018-03-28T03:21:27.059Z,3.70
2018-03-28T03:23:53.482Z,3.80
2018-03-28T03:26:20.079Z,3.70
2018-03-28T03:28:46.557Z,3.80
2018-03-28T03:31:12.959Z,3.80
2018-03-28T03:33:39.367Z,3.80
2018-03-28T03:36:05.744Z,3.80
2018-03-28T03:38:32.916Z,3.90
2018-03-28T03:40:59.377Z,3.80
2018-03-28T03:43:25.775Z,3.90
2018-03-28T03:45:52.921Z,4.00
2018-03-28T03:48:20.051Z,4.00
2018-03-28T03:50:46.471Z,4.00
2018-03-28T03:53:12.930Z,4.00
2018-03-28T03:55:39.339Z,4.00
2018-03-28T03:58:05.826Z,4.00
2018-03-28T04:00:32.244Z,4.00
2018-03-28T04:02:59.381Z,4.10
2018-03-28T04:05:25.771Z,4.00
2018-03-28T04:07:52.214Z,4.10
2018-03-28T04:10:18.605Z,4.20
2018-03-28T04:12:45.855Z,4.30
2018-03-28T04:15:13.071Z,4.30
2018-03-28T04:17:39.448Z,4.30
2018-03-28T04:20:05.856Z,4.40
2018-03-28T04:22:32.243Z,4.40
2018-03-28T04:24:58.643Z,4.40
2018-03-28T04:27:25.784Z,4.40
2018-03-28T04:29:52.956Z,4.50
2018-03-28T04:32:19.358Z,4.50
2018-03-28T04:34:45.752Z,4.50
2018-03-28T04:37:12.161Z,4.60
2018-03-28T04:39:38.549Z,4.60
2018-03-28T04:42:04.956Z,4.60
2018-03-28T04:44:31.327Z,4.60
2018-03-28T04:46:57.731Z,4.70
2018-03-28T04:49:24.127Z,4.80
2018-03-28T04:51:50.512Z,4.80
2018-03-28T04:54:16.921Z,4.80
2018-03-28T04:56:43.310Z,4.90
2018-03-28T04:59:10.498Z,4.90
2018-03-28T05:01:36.880Z,4.80
2018-03-28T05:04:03.336Z,4.90
2018-03-28T05:06:29.723Z,4.90
2018-03-28T05:08:56.103Z,5.00
2018-03-28T05:11:23.267Z,5.10
2018-03-28T05:13:49.658Z,5.00
2018-03-28T05:16:16.070Z,5.10
2018-03-28T05:18:42.449Z,5.10
2018-03-28T05:21:09.611Z,5.20
2018-03-28T05:23:36.731Z,5.30
2018-03-28T05:26:03.133Z,5.20
2018-03-28T05:28:29.514Z,5.30
2018-03-28T05:30:55.915Z,5.40
2018-03-28T05:33:22.351Z,5.50
2018-03-28T05:35:48.767Z,5.50
2018-03-28T05:38:15.159Z,5.50
2018-03-28T05:40:42.317Z,5.60
2018-03-28T05:43:09.451Z,5.60
2018-03-28T05:45:35.854Z,5.60
2018-03-28T05:48:02.246Z,5.70
2018-03-28T05:50:28.697Z,5.70
2018-03-28T05:52:55.476Z,5.80
2018-03-28T05:55:21.854Z,5.90
2018-03-28T05:57:48.256Z,6.00
2018-03-28T06:00:14.667Z,6.00
2018-03-28T06:02:41.079Z,6.20
2018-03-28T06:05:07.472Z,6.30
2018-03-28T06:07:34.627Z,6.60
2018-03-28T06:10:01.773Z,6.70
2018-03-28T06:12:28.890Z,6.80
2018-03-28T06:14:55.282Z,6.70
2018-03-28T06:17:21.681Z,6.80
2018-03-28T06:19:48.675Z,6.90
2018-03-28T06:22:15.090Z,6.90
2018-03-28T06:24:42.211Z,7.00
2018-03-28T06:27:08.609Z,6.90
2018-03-28T06:29:35.011Z,7.00
2018-03-28T06:32:02.163Z,7.00
2018-03-28T06:34:29.303Z,7.10
2018-03-28T06:36:56.439Z,7.20
2018-03-28T06:39:22.861Z,7.10
2018-03-28T06:41:49.273Z,7.30
2018-03-28T06:44:15.655Z,7.40
2018-03-28T06:46:42.803Z,7.50
2018-03-28T06:49:09.928Z,7.60
2018-03-28T06:51:36.351Z,7.50
2018-03-28T06:54:02.802Z,7.70
2018-03-28T06:56:29.210Z,7.80
2018-03-28T06:58:55.616Z,8.00
2018-03-28T07:01:22.017Z,8.20
2018-03-28T07:03:48.418Z,8.20
2018-03-28T07:06:14.800Z,8.30
2018-03-28T07:08:41.961Z,8.70
2018-03-28T07:11:08.346Z,8.60
2018-03-28T07:13:34.757Z,8.60
2018-03-28T07:16:01.197Z,8.80
2018-03-28T07:18:27.577Z,8.80
2018-03-28T07:20:54.752Z,9.00
2018-03-28T07:23:21.161Z,8.90
2018-03-28T07:25:48.311Z,9.20
2018-03-28T07:28:14.699Z,9.10
2018-03-28T07:30:41.109Z,9.30
2018-03-28T07:33:07.539Z,9.30
2018-03-28T07:35:33.937Z,9.30
2018-03-28T07:38:00.360Z,9.40
2018-03-28T07:40:26.805Z,9.30
2018-03-28T07:42:53.198Z,9.20
2018-03-28T07:45:19.600Z,9.30
2018-03-28T07:47:46.747Z,9.40
2018-03-28T07:50:13.899Z,9.50
2018-03-28T07:52:41.044Z,9.50
2018-03-28T07:55:08.218Z,9.50
2018-03-28T07:57:34.619Z,9.50
2018-03-28T08:00:01.027Z,9.50
2018-03-28T08:02:27.452Z,9.60
2018-03-28T08:04:53.889Z,9.70
2018-03-28T08:07:20.290Z,9.90
2018-03-28T08:09:46.728Z,9.90
2018-03-28T08:12:13.144Z,10.30
2018-03-28T08:14:40.283Z,10.50
2018-03-28T08:17:07.442Z,10.40
2018-03-28T08:19:34.566Z,10.20
2018-03-28T08:22:00.981Z,10.10
2018-03-28T08:24:27.384Z,9.90
2018-03-28T08:26:53.803Z,9.90
2018-03-28T08:29:20.942Z,9.40
2018-03-28T08:31:47.355Z,9.30
2018-03-28T08:34:13.770Z,9.20
2018-03-28T08:36:40.156Z,9.20
2018-03-28T08:39:07.341Z,9.80
2018-03-28T08:41:33.738Z,9.70
2018-03-28T08:44:00.918Z,10.30
2018-03-28T08:46:27.321Z,10.30
2018-03-28T08:48:54.461Z,10.20
2018-03-28T08:51:20.907Z,10.20
2018-03-28T08:53:48.026Z,10.60
2018-03-28T08:56:14.425Z,10.50
2018-03-28T08:58:40.811Z,10.40
2018-03-28T09:01:07.304Z,10.40
2018-03-28T09:03:33.747Z,10.30
2018-03-28T09:06:00.162Z,10.40
2018-03-28T09:08:27.307Z,10.70
2018-03-28T09:10:53.751Z,10.60
2018-03-28T09:13:20.167Z,10.70
2018-03-28T09:15:46.635Z,10.60
2018-03-28T09:18:13.069Z,10.60
2018-03-28T09:20:39.456Z,10.60
2018-03-28T09:23:06.615Z,10.60
2018-03-28T09:25:33.753Z,10.70
2018-03-28T09:28:00.916Z,10.80
2018-03-28T09:30:28.034Z,10.90
2018-03-28T09:32:54.460Z,10.80
2018-03-28T09:35:20.854Z,10.90
2018-03-28T09:37:47.261Z,11.10
2018-03-28T09:40:14.441Z,11.30
2018-03-28T09:42:40.834Z,11.30
2018-03-28T09:45:07.256Z,11.10
2018-03-28T09:47:33.640Z,10.90
2018-03-28T09:50:00.085Z,10.80
2018-03-28T09:52:26.487Z,10.80
2018-03-28T09:54:53.665Z,11.50
2018-03-28T09:57:20.081Z,11.40
2018-03-28T09:59:47.279Z,11.50
2018-03-28T10:02:13.764Z,11.40
2018-03-28T10:04:47.024Z,11.40
2018-03-28T10:07:13.460Z,11.30
2018-03-28T10:09:39.861Z,11.50
2018-03-28T10:12:06.374Z,11.40
2018-03-28T10:14:33.519Z,11.50
2018-03-28T10:17:00.732Z,11.60
2018-03-28T10:19:27.137Z,11.60
2018-03-28T10:21:53.585Z,11.70
2018-03-28T10:24:20.011Z,11.90
2018-03-28T10:26:46.405Z,11.90
2018-03-28T10:29:12.832Z,12.30
2018-03-28T10:31:39.999Z,12.20
2018-03-28T10:34:07.174Z,11.90
2018-03-28T10:36:33.613Z,11.80
2018-03-28T10:39:00.045Z,11.80
2018-03-28T10:41:26.462Z,12.00
2018-03-28T10:43:52.842Z,12.20
2018-03-28T10:46:19.273Z,12.40
2018-03-28T10:48:45.670Z,12.20
2018-03-28T10:51:12.086Z,12.30
2018-03-28T10:53:39.216Z,12.20
2018-03-28T10:56:05.647Z,12.10
2018-03-28T10:58:32.046Z,12.20
2018-03-28T11:00:58.501Z,12.30
2018-03-28T11:03:24.939Z,12.40
2018-03-28T11:05:52.140Z,12.40
2018-03-28T11:08:18.606Z,12.30
2018-03-28T11:10:45.001Z,12.20
2018-03-28T11:13:12.163Z,12.10
2018-03-28T11:15:38.572Z,12.00
2018-03-28T11:18:04.985Z,11.90
2018-03-28T11:20:31.404Z,12.00
2018-03-28T11:22:57.815Z,11.90
2018-03-28T11:25:24.224Z,11.70
2018-03-28T11:27:51.342Z,11.90
2018-03-28T11:30:17.787Z,11.80
2018-03-28T11:32:44.228Z,11.80
2018-03-28T11:35:11.376Z,11.70
2018-03-28T11:37:37.779Z,11.60
2018-03-28T11:40:04.282Z,11.70
2018-03-28T11:42:30.696Z,11.70
2018-03-28T11:44:57.819Z,12.40
2018-03-28T11:47:24.222Z,12.30
2018-03-28T11:49:50.617Z,12.40
2018-03-28T11:52:17.762Z,13.10
2018-03-28T11:54:44.142Z,13.10
2018-03-28T11:57:10.548Z,13.30
2018-03-28T11:59:36.938Z,13.50
2018-03-28T12:02:03.390Z,13.70
2018-03-28T12:04:30.530Z,13.10
2018-03-28T12:06:56.913Z,13.00
2018-03-28T12:09:23.350Z,12.50
2018-03-28T12:11:49.742Z,12.50
2018-03-28T12:14:16.206Z,12.50
2018-03-28T12:16:42.577Z,12.60
2018-03-28T12:19:08.954Z,12.90
2018-03-28T12:21:36.089Z,12.60
2018-03-28T12:24:03.253Z,12.60
2018-03-28T12:26:30.407Z,12.80
2018-03-28T12:28:57.522Z,12.70
2018-03-28T12:31:23.926Z,12.70
2018-03-28T12:33:50.303Z,12.90
2018-03-28T12:36:16.707Z,12.90
2018-03-28T12:38:43.106Z,13.00
2018-03-28T12:41:09.530Z,12.80
2018-03-28T12:43:36.681Z,13.20
2018-03-28T12:46:03.824Z,13.20
2018-03-28T12:48:30.232Z,13.10
2018-03-28T12:50:56.687Z,12.70
2018-03-28T12:53:23.066Z,12.50
2018-03-28T12:55:49.458Z,12.80
2018-03-28T12:58:15.834Z,13.40
2018-03-28T13:00:42.231Z,13.40
2018-03-28T13:03:09.362Z,13.60
2018-03-28T13:05:35.780Z,13.50
2018-03-28T13:08:02.283Z,13.90
2018-03-28T13:10:28.755Z,13.70
2018-03-28T13:12:55.174Z,13.20
2018-03-28T13:15:21.603Z,13.40
2018-03-28T13:17:47.991Z,13.20
2018-03-28T13:20:15.130Z,13.20
2018-03-28T13:22:41.533Z,13.10
2018-03-28T13:25:07.911Z,13.20
2018-03-28T13:27:35.047Z,13.00
2018-03-28T13:30:02.215Z,12.80
2018-03-28T13:32:29.366Z,12.60
2018-03-28T13:34:56.542Z,12.80
2018-03-28T13:37:22.949Z,12.70
2018-03-28T13:39:50.107Z,12.70
2018-03-28T13:42:17.248Z,12.70
2018-03-28T13:44:43.684Z,12.70
2018-03-28T13:47:10.824Z,12.50
2018-03-28T13:49:37.241Z,12.40
2018-03-28T13:52:03.665Z,12.60
2018-03-28T13:54:30.069Z,12.50
2018-03-28T13:56:56.473Z,12.60
2018-03-28T13:59:23.599Z,12.10
2018-03-28T14:01:50.014Z,12.00
2018-03-28T14:04:16.400Z,12.10
2018-03-28T14:06:43.555Z,12.00
2018-03-28T14:09:10.716Z,12.20
2018-03-28T14:11:37.142Z,12.10
2018-03-28T14:14:04.365Z,12.60
2018-03-28T14:16:30.827Z,12.60
2018-03-28T14:18:58.004Z,12.90
2018-03-28T14:21:24.439Z,12.80
2018-03-28T14:23:50.822Z,12.70
2018-03-28T14:26:17.247Z,12.90
2018-03-28T14:28:43.656Z,12.70
2018-03-28T14:31:10.093Z,13.00
2018-03-28T14:33:36.528Z,13.00
2018-03-28T14:36:03.026Z,13.20
2018-03-28T14:38:30.183Z,13.00
2018-03-28T14:40:57.310Z,12.80
2018-03-28T14:43:23.730Z,12.80
2018-03-28T14:45:50.118Z,12.50
2018-03-28T14:48:16.555Z,12.40
2018-03-28T14:50:42.951Z,12.40
2018-03-28T14:53:10.121Z,12.20
2018-03-28T14:55:36.561Z,12.10
2018-03-28T14:58:03.001Z,12.20
2018-03-28T15:00:29.418Z,12.10
2018-03-28T15:02:56.595Z,12.00
2018-03-28T15:05:23.005Z,12.00
2018-03-28T15:07:50.126Z,12.00
2018-03-28T15:10:16.552Z,11.90
2018-03-28T15:12:42.944Z,11.90
2018-03-28T15:15:09.373Z,11.80
2018-03-28T15:17:35.813Z,11.60
2018-03-28T15:20:02.246Z,11.60
2018-03-28T15:22:28.682Z,11.60
2018-03-28T15:24:55.072Z,11.50
2018-03-28T15:27:21.500Z,11.40
2018-03-28T15:29:47.873Z,11.40
2018-03-28T15:32:15.028Z,11.20
2018-03-28T15:34:41.408Z,11.20
2018-03-28T15:37:07.812Z,11.20
2018-03-28T15:39:34.205Z,11.20
2018-03-28T15:42:00.624Z,11.10
2018-03-28T15:44:27.029Z,11.00
2018-03-28T15:46:53.435Z,10.90
2018-03-28T15:49:19.672Z,10.80
2018-03-28T15:51:45.906Z,10.70
2018-03-28T15:54:12.133Z,10.60
2018-03-28T15:56:38.336Z,10.40
2018-03-28T15:59:05.329Z,10.30
2018-03-28T16:01:31.531Z,10.20
2018-03-28T16:03:57.761Z,10.20
2018-03-28T16:06:23.980Z,10.20
2018-03-28T16:08:50.976Z,10.00
2018-03-28T16:11:17.249Z,9.90
2018-03-28T16:13:44.258Z,9.70
2018-03-28T16:16:10.466Z,9.70
2018-03-28T16:18:36.703Z,9.60
2018-03-28T16:21:02.957Z,9.50
2018-03-28T16:23:29.160Z,9.40
2018-03-28T16:25:55.387Z,9.40
2018-03-28T16:28:21.593Z,9.40
2018-03-28T16:30:48.563Z,9.40
2018-03-28T16:33:14.760Z,9.30
2018-03-28T16:35:41.730Z,9.30
2018-03-28T16:38:07.941Z,9.30
2018-03-28T16:40:34.910Z,9.20
2018-03-28T16:43:01.169Z,9.20
2018-03-28T16:45:27.367Z,9.20
2018-03-28T16:47:53.642Z,9.10
2018-03-28T16:50:19.840Z,9.10
2018-03-28T16:52:46.806Z,9.00
2018-03-28T16:55:13.026Z,8.90
2018-03-28T16:57:39.270Z,9.00
2018-03-28T17:00:05.503Z,8.90
2018-03-28T17:02:31.733Z,8.90
2018-03-28T17:04:57.979Z,8.80
2018-03-28T17:07:24.244Z,8.80
2018-03-28T17:09:50.469Z,8.80
2018-03-28T17:12:16.708Z,8.80
2018-03-28T17:14:42.917Z,8.80
2018-03-28T17:17:09.865Z,8.70
2018-03-28T17:19:36.838Z,8.70
2018-03-28T17:22:03.108Z,8.60
2018-03-28T17:24:29.337Z,8.60
2018-03-28T17:26:55.577Z,8.60
2018-03-28T17:29:21.802Z,8.60
2018-03-28T17:31:48.047Z,8.60
2018-03-28T17:34:14.269Z,8.50
2018-03-28T17:36:40.514Z,8.50
2018-03-28T17:39:06.740Z,8.50
2018-03-28T17:41:32.956Z,8.40
2018-03-28T17:43:59.942Z,8.40
2018-03-28T17:46:26.162Z,8.40
2018-03-28T17:48:53.211Z,8.30
2018-03-28T17:51:20.181Z,8.30
2018-03-28T17:53:46.391Z,8.30
2018-03-28T17:56:13.358Z,8.40
2018-03-28T17:58:39.567Z,8.30
2018-03-28T18:01:06.624Z,8.30
2018-03-28T18:03:33.572Z,8.30
2018-03-28T18:05:59.795Z,8.30
2018-03-28T18:08:26.749Z,8.30
2018-03-28T18:10:52.980Z,8.30
2018-03-28T18:13:19.176Z,8.30
2018-03-28T18:15:45.395Z,8.40
2018-03-28T18:18:11.617Z,8.30
2018-03-28T18:20:37.824Z,8.30
2018-03-28T18:23:04.050Z,8.30
2018-03-28T18:25:30.292Z,8.30
2018-03-28T18:27:56.533Z,8.30
2018-03-28T18:30:22.738Z,8.30
2018-03-28T18:32:48.959Z,8.20
2018-03-28T18:35:15.176Z,8.20
2018-03-28T18:37:41.416Z,8.20
2018-03-28T18:40:07.646Z,8.20
2018-03-28T18:42:33.858Z,8.20
2018-03-28T18:45:00.828Z,8.10
2018-03-28T18:47:27.030Z,8.10
2018-03-28T18:49:53.993Z,8.10
2018-03-28T18:52:20.197Z,8.00
2018-03-28T18:54:47.162Z,8.10
2018-03-28T18:57:14.141Z,8.10
2018-03-28T18:59:40.372Z,8.00
2018-03-28T19:02:06.584Z,8.10
2018-03-28T19:04:32.805Z,8.00
2018-03-28T19:06:59.009Z,8.00
2018-03-28T19:09:25.252Z,8.00
2018-03-28T19:11:52.274Z,8.10
2018-03-28T19:14:18.507Z,8.00
2018-03-28T19:16:44.799Z,8.10
2018-03-28T19:19:11.022Z,8.10
2018-03-28T19:21:37.211Z,8.10
2018-03-28T19:24:04.453Z,8.10
2018-03-28T19:26:30.803Z,8.00
2018-03-28T19:28:57.768Z,8.10
2018-03-28T19:31:23.989Z,8.00
2018-03-28T19:33:50.933Z,8.00
2018-03-28T19:36:17.900Z,8.00
2018-03-28T19:38:44.096Z,8.00
2018-03-28T19:41:10.681Z,8.00
2018-03-28T19:43:37.314Z,8.00
2018-03-28T19:46:03.544Z,7.90
2018-03-28T19:48:30.086Z,7.90
2018-03-28T19:50:56.353Z,7.90
2018-03-28T19:53:23.059Z,7.90
2018-03-28T19:55:49.334Z,7.90
2018-03-28T19:58:15.573Z,8.10
2018-03-28T20:00:41.965Z,8.20
2018-03-28T20:03:08.404Z,8.20
2018-03-28T20:05:34.615Z,8.20
2018-03-28T20:08:00.843Z,8.20
2018-03-28T20:10:28.712Z,8.20
2018-03-28T20:12:57.371Z,8.20
2018-03-28T20:15:24.443Z,8.40
2018-03-28T20:17:50.690Z,8.30
2018-03-28T20:20:19.428Z,8.40
2018-03-28T20:22:46.984Z,8.30
2018-03-28T20:25:13.316Z,8.40
2018-03-28T20:27:39.550Z,8.40
2018-03-28T20:30:06.545Z,8.40
2018-03-28T20:32:32.761Z,8.30
2018-03-28T20:34:59.016Z,8.30
2018-03-28T20:37:25.238Z,8.30
2018-03-28T20:39:51.472Z,8.30
2018-03-28T20:42:17.686Z,8.30
2018-03-28T20:44:43.916Z,8.30
2018-03-28T20:47:10.139Z,8.40
2018-03-28T20:49:36.384Z,8.40
2018-03-28T20:52:02.634Z,8.40
2018-03-28T20:54:28.887Z,8.40
2018-03-28T20:56:55.121Z,8.40
2018-03-28T20:59:21.456Z,8.40
2018-03-28T21:01:48.464Z,8.50
2018-03-28T21:04:14.715Z,8.40
2018-03-28T21:06:40.946Z,8.50
2018-03-28T21:09:07.146Z,8.60
2018-03-28T21:11:33.380Z,8.60
2018-03-28T21:13:59.706Z,8.60
2018-03-28T21:16:26.646Z,8.60
2018-03-28T21:18:52.851Z,8.60
2018-03-28T21:21:19.838Z,8.70
2018-03-28T21:23:46.071Z,8.60
2018-03-28T21:26:12.318Z,8.70
2018-03-28T21:28:38.553Z,8.70
2018-03-28T21:31:04.796Z,8.70
2018-03-28T21:33:30.996Z,8.80
2018-03-28T21:35:57.230Z,8.80
2018-03-28T21:38:23.457Z,8.80
2018-03-28T21:40:49.663Z,8.80
2018-03-28T21:43:15.878Z,8.80
2018-03-28T21:45:42.078Z,8.80
2018-03-28T21:48:09.053Z,8.90
2018-03-28T21:50:35.306Z,8.90
2018-03-28T21:53:01.533Z,8.90
2018-03-28T21:55:27.747Z,9.00
2018-03-28T21:57:53.984Z,9.00
2018-03-28T22:00:20.183Z,9.10
2018-03-28T22:02:47.147Z,9.00
2018-03-28T22:05:13.350Z,9.00
2018-03-28T22:07:39.598Z,9.00
2018-03-28T22:10:06.535Z,8.90
2018-03-28T22:12:33.518Z,8.90
2018-03-28T22:14:59.713Z,8.90
2018-03-28T22:17:26.652Z,8.90
2018-03-28T22:19:53.648Z,8.80
2018-03-28T22:22:19.883Z,8.80
2018-03-28T22:24:46.110Z,8.70
2018-03-28T22:27:12.312Z,8.70
2018-03-28T22:29:38.568Z,8.60
2018-03-28T22:32:04.826Z,8.60
2018-03-28T22:34:31.026Z,8.60
2018-03-28T22:36:57.255Z,8.50
2018-03-28T22:39:23.457Z,8.50
2018-03-28T22:41:50.423Z,8.50
2018-03-28T22:44:16.625Z,8.40
2018-03-28T22:46:43.601Z,8.50
2018-03-28T22:49:09.804Z,8.50
2018-03-28T22:51:36.793Z,8.50
2018-03-28T22:54:03.005Z,8.50
2018-03-28T22:56:29.247Z,8.50
2018-03-28T22:58:55.442Z,8.50
2018-03-28T23:01:22.413Z,8.60
2018-03-28T23:03:48.640Z,8.50
2018-03-28T23:06:14.840Z,8.60
2018-03-28T23:08:41.820Z,8.50
2018-03-28T23:11:08.013Z,8.40
2018-03-28T23:13:34.236Z,8.50
2018-03-28T23:16:00.433Z,8.50
2018-03-28T23:18:26.665Z,8.50
2018-03-28T23:20:52.875Z,8.40
2018-03-28T23:23:19.106Z,8.40
2018-03-28T23:25:45.341Z,8.40
2018-03-28T23:28:11.567Z,8.40
2018-03-28T23:30:37.798Z,8.30
2018-03-28T23:33:04.053Z,8.30
2018-03-28T23:35:30.265Z,8.30
2018-03-28T23:37:56.469Z,8.30
2018-03-28T23:40:22.686Z,8.20
2018-03-28T23:42:49.626Z,8.20
2018-03-28T23:45:16.615Z,8.20
2018-03-28T23:47:42.852Z,8.20
2018-03-28T23:50:09.078Z,8.20
2018-03-28T23:52:35.289Z,8.20
2018-03-28T23:55:01.509Z,8.20
2018-03-28T23:57:27.708Z,8.20
2018-03-28T23:59:53.937Z,8.20
